Shavano Park, Texas
Current Conditions -  °F | °C
As of 12:51 PM on Thursday 23 Oct 2014 (Local Time) from KSAT Reporting Station
Scattered Clouds Scattered Clouds  
Wind Chill: 26°   Ceiling: Unl
Heat Index: 26°   Visibility: 10mi
Dew Point: 14°   Wind: 3mph
Humidity: 50%   Direction: 180°S
Pressure: 30.14"   Gusts: NA
Location:  29.5766°N, 98.5421°W
Report Text: KSAT 231751Z 18003KT 10SM FEW040 SCT100 26/14 A3014 RMK AO2 SLP191 T02560144 10267 20200 58003 $
Loading
Personal Weather Stations






























Interactive Weather Map
Tropical Storm Tracking
New forecast layout! Learn more

10-Day Weather Forecast

Advertisements
Track Severe Weather on mobile